Time;durP1;ratioP1;P1;durP2;ratioP2;P2;SDS_P1;SDS_P2;PMS_P1;PMS_P2;Temp;Humidity;BMP_temperature;BMP_pressure;BME280_temperature;BME280_humidity;BME280_pressure;Samples;Min_cycle;Max_cycle;Signal;HPM_P1;HPM_P2
2021/07/15 00:00:41;;;;;;;;;;;20.30;65.40;;;;;;482394;246;1103;-43
2021/07/15 00:02:42;;;;;;;;;;;20.30;65.50;;;;;;482853;246;1558;-44
2021/07/15 00:04:44;;;;;;;;;;;20.30;65.50;;;;;;482451;246;1054;-43
2021/07/15 00:06:45;;;;;;;;;;;20.30;65.40;;;;;;482678;246;1161;-44
2021/07/15 00:08:47;;;;;;;;;;;20.30;65.40;;;;;;482573;246;1113;-43
2021/07/15 00:10:48;;;;;;;;;;;20.30;65.40;;;;;;482549;246;2355;-44
2021/07/15 00:12:49;;;;;;;;;;;20.30;65.50;;;;;;482408;246;2199;-43
2021/07/15 00:14:50;;;;;;;;;;;20.30;65.50;;;;;;482883;246;1244;-43
2021/07/15 00:16:53;;;;;;;;;;;20.30;65.40;;;;;;482387;246;1245;-43
2021/07/15 00:18:53;;;;;;;;;;;20.30;65.50;;;;;;482670;246;1488;-44
2021/07/15 00:20:54;;;;;;;;;;;20.30;65.60;;;;;;482841;246;1593;-43
2021/07/15 00:22:56;;;;;;;;;;;20.30;65.60;;;;;;482781;246;1160;-44
2021/07/15 00:24:59;;;;;;;;;;;20.30;65.50;;;;;;482481;246;1053;-44
2021/07/15 00:26:59;;;;;;;;;;;20.30;65.50;;;;;;482444;246;2066;-44
2021/07/15 00:29:00;;;;;;;;;;;20.30;65.50;;;;;;482411;246;974;-43
2021/07/15 00:31:01;;;;;;;;;;;20.30;65.50;;;;;;482397;246;1727;-43
2021/07/15 00:33:03;;;;;;;;;;;20.30;65.50;;;;;;482402;246;2189;-43
2021/07/15 00:35:04;;;;;;;;;;;20.30;65.40;;;;;;482918;246;1029;-44
2021/07/15 00:37:05;;;;;;;;;;;20.30;65.40;;;;;;482424;246;1236;-43
2021/07/15 00:39:07;;;;;;;;;;;20.30;65.40;;;;;;482467;246;1285;-43
2021/07/15 00:41:08;;;;;;;;;;;20.30;65.40;;;;;;482751;246;1485;-43
2021/07/15 00:43:09;;;;;;;;;;;20.30;65.50;;;;;;482514;246;1119;-43
2021/07/15 00:45:10;;;;;;;;;;;20.30;65.50;;;;;;482663;246;1262;-43
2021/07/15 00:47:12;;;;;;;;;;;20.30;65.50;;;;;;482453;246;1314;-44
2021/07/15 00:49:13;;;;;;;;;;;20.30;65.40;;;;;;482355;246;1265;-43
2021/07/15 00:51:14;;;;;;;;;;;20.30;65.40;;;;;;482773;246;1268;-44
2021/07/15 00:53:16;;;;;;;;;;;20.30;65.40;;;;;;482423;246;2173;-43
2021/07/15 00:55:17;;;;;;;;;;;20.30;65.40;;;;;;482450;246;1055;-44
2021/07/15 00:57:19;;;;;;;;;;;20.30;65.30;;;;;;482406;246;1439;-44
2021/07/15 00:59:21;;;;;;;;;;;20.30;65.50;;;;;;482885;246;2123;-44
2021/07/15 01:01:21;;;;;;;;;;;20.30;65.50;;;;;;482359;246;2312;-44
2021/07/15 01:03:22;;;;;;;;;;;20.30;65.40;;;;;;482335;246;1181;-43
2021/07/15 01:05:24;;;;;;;;;;;20.30;65.40;;;;;;482842;246;1042;-44
2021/07/15 01:07:25;;;;;;;;;;;20.30;65.40;;;;;;482408;246;1087;-44
2021/07/15 01:09:26;;;;;;;;;;;20.30;65.40;;;;;;482647;246;1202;-43
2021/07/15 01:11:28;;;;;;;;;;;20.20;65.50;;;;;;482581;246;1050;-44
2021/07/15 01:13:29;;;;;;;;;;;20.30;65.50;;;;;;482566;246;2193;-44
2021/07/15 01:15:30;;;;;;;;;;;20.30;65.40;;;;;;482357;246;1047;-44
2021/07/15 01:17:32;;;;;;;;;;;20.30;65.40;;;;;;482836;246;1274;-44
2021/07/15 01:19:33;;;;;;;;;;;20.30;65.40;;;;;;482941;246;1043;-43
2021/07/15 01:21:34;;;;;;;;;;;20.30;65.40;;;;;;482503;246;1743;-43
2021/07/15 01:23:36;;;;;;;;;;;20.20;65.50;;;;;;482876;246;1234;-44
2021/07/15 01:25:37;;;;;;;;;;;20.30;65.50;;;;;;482439;246;1083;-43
2021/07/15 01:27:38;;;;;;;;;;;20.20;65.50;;;;;;482829;246;1267;-44
2021/07/15 01:29:40;;;;;;;;;;;20.30;65.50;;;;;;482572;246;1083;-43
2021/07/15 01:31:41;;;;;;;;;;;20.30;65.40;;;;;;482623;246;1708;-44
2021/07/15 01:33:42;;;;;;;;;;;20.30;65.40;;;;;;482807;246;2180;-43
2021/07/15 01:35:44;;;;;;;;;;;20.30;65.40;;;;;;482428;246;1061;-43
2021/07/15 01:37:45;;;;;;;;;;;20.30;65.40;;;;;;482489;246;1547;-43
2021/07/15 01:39:46;;;;;;;;;;;20.30;65.40;;;;;;482616;246;1159;-43
2021/07/15 01:41:48;;;;;;;;;;;20.30;65.50;;;;;;482733;246;1172;-44
2021/07/15 01:43:49;;;;;;;;;;;20.30;65.50;;;;;;482470;246;1275;-43
2021/07/15 01:45:51;;;;;;;;;;;20.30;65.50;;;;;;482430;246;1465;-43
2021/07/15 01:47:52;;;;;;;;;;;20.30;65.50;;;;;;482854;246;1150;-43
2021/07/15 01:49:53;;;;;;;;;;;20.30;65.40;;;;;;482458;246;1074;-43
2021/07/15 01:51:54;;;;;;;;;;;20.30;65.40;;;;;;482365;246;1552;-43
2021/07/15 01:53:56;;;;;;;;;;;20.30;65.40;;;;;;482337;247;2188;-43
2021/07/15 01:55:57;;;;;;;;;;;20.30;65.40;;;;;;482837;246;1170;-44
2021/07/15 01:57:59;;;;;;;;;;;20.30;65.40;;;;;;482688;246;1306;-43
2021/07/15 02:00:00;;;;;;;;;;;20.30;65.40;;;;;;482553;246;1099;-43
2021/07/15 02:02:01;;;;;;;;;;;20.30;65.40;;;;;;482790;246;1137;-43
2021/07/15 02:04:03;;;;;;;;;;;20.30;65.40;;;;;;482419;246;1066;-43
2021/07/15 02:06:04;;;;;;;;;;;20.30;65.50;;;;;;482722;246;1721;-44
2021/07/15 02:08:05;;;;;;;;;;;20.20;65.50;;;;;;482360;246;1815;-44
2021/07/15 02:10:07;;;;;;;;;;;20.30;65.40;;;;;;482369;246;1195;-43
2021/07/15 02:12:08;;;;;;;;;;;20.30;65.40;;;;;;482222;246;2188;-43
2021/07/15 02:14:10;;;;;;;;;;;20.30;65.40;;;;;;482811;246;1056;-44
2021/07/15 02:16:11;;;;;;;;;;;20.30;65.40;;;;;;482473;246;2382;-43
2021/07/15 02:18:12;;;;;;;;;;;20.30;65.40;;;;;;482422;246;1226;-43
2021/07/15 02:20:13;;;;;;;;;;;20.30;65.40;;;;;;482606;246;1057;-44
2021/07/15 02:22:15;;;;;;;;;;;20.30;65.40;;;;;;482402;246;1237;-43
2021/07/15 02:24:16;;;;;;;;;;;20.30;65.40;;;;;;482409;246;1013;-43
2021/07/15 02:26:17;;;;;;;;;;;20.30;65.40;;;;;;482382;246;1534;-44
2021/07/15 02:28:20;;;;;;;;;;;20.30;65.40;;;;;;482627;246;1060;-43
2021/07/15 02:30:20;;;;;;;;;;;20.30;65.50;;;;;;482819;246;1874;-43
2021/07/15 02:32:21;;;;;;;;;;;20.20;65.40;;;;;;482829;246;2185;-43
2021/07/15 02:34:23;;;;;;;;;;;20.30;65.40;;;;;;482889;246;1065;-43
2021/07/15 02:36:24;;;;;;;;;;;20.30;65.30;;;;;;482435;246;1439;-43
2021/07/15 02:38:25;;;;;;;;;;;20.30;65.30;;;;;;482403;246;1085;-43
2021/07/15 02:40:27;;;;;;;;;;;20.30;65.40;;;;;;482631;246;1284;-43
2021/07/15 02:42:28;;;;;;;;;;;20.30;65.40;;;;;;482763;246;1113;-43
2021/07/15 02:44:29;;;;;;;;;;;20.30;65.40;;;;;;482558;246;1068;-44
2021/07/15 02:46:31;;;;;;;;;;;20.30;65.50;;;;;;482864;246;1032;-44
2021/07/15 02:48:32;;;;;;;;;;;20.30;65.40;;;;;;482344;246;1110;-43
2021/07/15 02:50:33;;;;;;;;;;;20.30;65.40;;;;;;482804;246;1070;-44
2021/07/15 02:52:35;;;;;;;;;;;20.30;65.40;;;;;;482394;246;2142;-44
2021/07/15 02:54:36;;;;;;;;;;;20.30;65.50;;;;;;482471;246;1052;-43
2021/07/15 02:56:37;;;;;;;;;;;20.30;65.50;;;;;;482445;246;1214;-43
2021/07/15 02:58:38;;;;;;;;;;;20.30;65.50;;;;;;482468;246;1151;-43
2021/07/15 03:00:40;;;;;;;;;;;20.30;65.50;;;;;;482855;246;1132;-44
2021/07/15 03:02:41;;;;;;;;;;;20.30;65.40;;;;;;482477;246;1424;-44
2021/07/15 03:04:42;;;;;;;;;;;20.30;65.40;;;;;;482506;246;1088;-43
2021/07/15 03:06:44;;;;;;;;;;;20.20;65.40;;;;;;482817;246;1121;-43
2021/07/15 03:08:45;;;;;;;;;;;20.30;65.40;;;;;;482857;246;1250;-44
2021/07/15 03:10:46;;;;;;;;;;;20.30;65.50;;;;;;482417;246;1152;-43
2021/07/15 03:12:48;;;;;;;;;;;20.20;65.50;;;;;;482374;246;2196;-43
2021/07/15 03:14:49;;;;;;;;;;;20.30;65.40;;;;;;482677;246;1054;-44
2021/07/15 03:16:50;;;;;;;;;;;20.30;65.30;;;;;;482333;246;1234;-43
2021/07/15 03:18:52;;;;;;;;;;;20.30;65.40;;;;;;482877;246;1308;-43
2021/07/15 03:20:53;;;;;;;;;;;20.30;65.40;;;;;;482872;246;1070;-44
2021/07/15 03:22:54;;;;;;;;;;;20.30;65.40;;;;;;482617;246;1131;-43
2021/07/15 03:24:56;;;;;;;;;;;20.30;65.40;;;;;;482904;246;1063;-43
2021/07/15 03:26:57;;;;;;;;;;;20.30;65.40;;;;;;482406;246;1283;-44
2021/07/15 03:28:59;;;;;;;;;;;20.30;65.40;;;;;;482574;246;1148;-44
2021/07/15 03:31:00;;;;;;;;;;;20.30;65.40;;;;;;482857;246;1052;-43
2021/07/15 03:33:01;;;;;;;;;;;20.30;65.40;;;;;;482426;246;2114;-43
2021/07/15 03:35:03;;;;;;;;;;;20.30;65.40;;;;;;482701;246;1114;-43
2021/07/15 03:37:04;;;;;;;;;;;20.30;65.40;;;;;;482422;246;1174;-44
2021/07/15 03:39:05;;;;;;;;;;;20.30;65.40;;;;;;482832;246;1101;-43
2021/07/15 03:41:07;;;;;;;;;;;20.30;65.40;;;;;;482616;246;1311;-44
2021/07/15 03:43:08;;;;;;;;;;;20.30;65.40;;;;;;482846;246;1127;-44
2021/07/15 03:45:09;;;;;;;;;;;20.30;65.30;;;;;;482882;246;1076;-44
2021/07/15 03:47:11;;;;;;;;;;;20.30;65.40;;;;;;482838;246;1189;-44
2021/07/15 03:49:12;;;;;;;;;;;20.30;65.40;;;;;;482876;246;1145;-43
2021/07/15 03:51:13;;;;;;;;;;;20.30;65.40;;;;;;482708;246;1096;-44
2021/07/15 03:53:15;;;;;;;;;;;20.30;65.40;;;;;;482793;246;2137;-44
2021/07/15 03:55:16;;;;;;;;;;;20.30;65.50;;;;;;482513;246;1079;-43
2021/07/15 03:57:17;;;;;;;;;;;20.30;65.40;;;;;;482353;246;1365;-43
2021/07/15 03:59:19;;;;;;;;;;;20.30;65.30;;;;;;482689;246;1095;-44
2021/07/15 04:01:20;;;;;;;;;;;20.30;65.30;;;;;;482844;246;1085;-44
2021/07/15 04:03:21;;;;;;;;;;;20.30;65.40;;;;;;482416;246;1108;-44
2021/07/15 04:05:22;;;;;;;;;;;20.30;65.40;;;;;;482394;246;1063;-44
2021/07/15 04:07:24;;;;;;;;;;;20.30;65.40;;;;;;482427;246;1432;-44
2021/07/15 04:09:25;;;;;;;;;;;20.30;65.40;;;;;;482409;246;1040;-43
2021/07/15 04:11:26;;;;;;;;;;;20.30;65.40;;;;;;482509;246;1511;-43
2021/07/15 04:13:28;;;;;;;;;;;20.30;65.30;;;;;;482686;246;2145;-44
2021/07/15 04:15:29;;;;;;;;;;;20.30;65.30;;;;;;482769;246;1156;-43
2021/07/15 04:17:30;;;;;;;;;;;20.30;65.30;;;;;;482299;246;1229;-44
2021/07/15 04:19:32;;;;;;;;;;;20.30;65.40;;;;;;482639;246;1105;-43
2021/07/15 04:21:33;;;;;;;;;;;20.30;65.40;;;;;;482245;246;1470;-43
2021/07/15 04:23:35;;;;;;;;;;;20.30;65.40;;;;;;482361;246;1264;-44
2021/07/15 04:25:36;;;;;;;;;;;20.30;65.40;;;;;;482778;246;1067;-44
2021/07/15 04:27:37;;;;;;;;;;;20.30;65.30;;;;;;482303;246;1319;-44
2021/07/15 04:29:39;;;;;;;;;;;20.30;65.30;;;;;;482343;246;1569;-44
2021/07/15 04:31:40;;;;;;;;;;;20.30;65.30;;;;;;482720;246;1722;-43
2021/07/15 04:33:41;;;;;;;;;;;20.30;65.30;;;;;;482828;246;2157;-44
2021/07/15 04:35:43;;;;;;;;;;;20.30;65.30;;;;;;482320;246;1193;-44
2021/07/15 04:37:44;;;;;;;;;;;20.30;65.40;;;;;;482795;246;1192;-43
2021/07/15 04:39:45;;;;;;;;;;;20.30;65.50;;;;;;482449;246;1202;-44
2021/07/15 04:41:46;;;;;;;;;;;20.30;65.40;;;;;;482179;246;1330;-44
2021/07/15 04:43:48;;;;;;;;;;;20.30;65.40;;;;;;482661;246;1150;-44
2021/07/15 04:45:49;;;;;;;;;;;20.30;65.40;;;;;;482221;246;1461;-43
2021/07/15 04:47:50;;;;;;;;;;;20.30;65.30;;;;;;482367;246;1129;-43
2021/07/15 04:49:52;;;;;;;;;;;20.30;65.30;;;;;;482728;246;1101;-44
2021/07/15 04:51:53;;;;;;;;;;;20.30;65.30;;;;;;482307;246;1403;-43
2021/07/15 04:53:55;;;;;;;;;;;20.30;65.40;;;;;;482094;246;2192;-43
2021/07/15 04:55:56;;;;;;;;;;;20.30;65.40;;;;;;482237;246;1501;-44
2021/07/15 04:57:57;;;;;;;;;;;20.30;65.40;;;;;;482376;246;1146;-43
2021/07/15 04:59:58;;;;;;;;;;;20.30;65.40;;;;;;482761;246;1052;-43
2021/07/15 05:02:00;;;;;;;;;;;20.30;65.50;;;;;;482248;246;1182;-43
2021/07/15 05:04:01;;;;;;;;;;;20.30;65.50;;;;;;482524;246;1043;-44
2021/07/15 05:06:02;;;;;;;;;;;20.30;65.40;;;;;;482107;246;1295;-44
2021/07/15 05:08:04;;;;;;;;;;;20.30;65.40;;;;;;482322;246;1147;-43
2021/07/15 05:10:05;;;;;;;;;;;20.30;65.40;;;;;;482156;246;1091;-44
2021/07/15 05:12:06;;;;;;;;;;;20.30;65.30;;;;;;482388;246;1191;-43
2021/07/15 05:14:08;;;;;;;;;;;20.30;65.30;;;;;;482477;246;2153;-44
2021/07/15 05:16:09;;;;;;;;;;;20.30;65.30;;;;;;482153;246;1229;-43
2021/07/15 05:18:11;;;;;;;;;;;20.30;65.30;;;;;;482361;246;1160;-43
2021/07/15 05:20:12;;;;;;;;;;;20.30;65.40;;;;;;482604;246;1187;-43
2021/07/15 05:22:13;;;;;;;;;;;20.30;65.40;;;;;;482216;246;1177;-43
2021/07/15 05:24:15;;;;;;;;;;;20.30;65.40;;;;;;482213;246;1102;-44
2021/07/15 05:26:16;;;;;;;;;;;20.30;65.50;;;;;;482105;246;1310;-43
2021/07/15 05:28:17;;;;;;;;;;;20.30;65.40;;;;;;482254;246;1192;-43
2021/07/15 05:30:19;;;;;;;;;;;20.30;65.30;;;;;;482024;246;1151;-43
2021/07/15 05:32:20;;;;;;;;;;;20.30;65.40;;;;;;482312;246;1100;-44
2021/07/15 05:34:21;;;;;;;;;;;20.30;65.50;;;;;;482460;246;2133;-43
2021/07/15 05:36:23;;;;;;;;;;;20.30;65.40;;;;;;482137;246;1248;-43
2021/07/15 05:38:24;;;;;;;;;;;20.30;65.40;;;;;;482140;246;1194;-43
2021/07/15 05:40:25;;;;;;;;;;;20.30;65.40;;;;;;482036;246;1155;-43
2021/07/15 05:42:27;;;;;;;;;;;20.30;65.40;;;;;;481924;246;1190;-44
2021/07/15 05:44:28;;;;;;;;;;;20.30;65.30;;;;;;482091;246;1090;-44
2021/07/15 05:46:30;;;;;;;;;;;20.30;65.30;;;;;;481921;246;1370;-44
2021/07/15 05:48:31;;;;;;;;;;;20.30;65.30;;;;;;482159;246;1315;-43
2021/07/15 05:50:32;;;;;;;;;;;20.30;65.50;;;;;;482009;246;1258;-43
2021/07/15 05:52:33;;;;;;;;;;;20.30;65.40;;;;;;482194;246;1216;-43
2021/07/15 05:54:35;;;;;;;;;;;20.30;65.40;;;;;;481948;246;2192;-44
2021/07/15 05:56:36;;;;;;;;;;;20.30;65.40;;;;;;482187;246;1224;-44
2021/07/15 05:58:37;;;;;;;;;;;20.30;65.30;;;;;;482033;246;1121;-43
2021/07/15 06:00:39;;;;;;;;;;;20.30;65.30;;;;;;481977;246;1084;-43
2021/07/15 06:02:40;;;;;;;;;;;20.30;65.40;;;;;;482074;246;1127;-44
2021/07/15 06:04:41;;;;;;;;;;;20.30;65.40;;;;;;481993;246;1084;-43
2021/07/15 06:06:43;;;;;;;;;;;20.30;65.40;;;;;;481882;246;1749;-44
2021/07/15 06:08:44;;;;;;;;;;;20.30;65.40;;;;;;481832;246;1131;-43
2021/07/15 06:10:45;;;;;;;;;;;20.30;65.40;;;;;;481858;246;1225;-44
2021/07/15 06:12:47;;;;;;;;;;;20.30;65.40;;;;;;481757;246;1196;-43
2021/07/15 06:14:48;;;;;;;;;;;20.30;65.40;;;;;;481821;246;2189;-43
2021/07/15 06:16:50;;;;;;;;;;;20.30;65.30;;;;;;481912;246;1393;-43
2021/07/15 06:18:51;;;;;;;;;;;20.30;65.30;;;;;;481914;246;1289;-44
2021/07/15 06:20:52;;;;;;;;;;;20.30;65.30;;;;;;481897;246;1201;-43
2021/07/15 06:22:54;;;;;;;;;;;20.30;65.40;;;;;;482151;246;1375;-44
2021/07/15 06:24:55;;;;;;;;;;;20.30;65.40;;;;;;481935;246;1252;-44
2021/07/15 06:26:56;;;;;;;;;;;20.30;65.40;;;;;;481936;246;1208;-43
2021/07/15 06:28:58;;;;;;;;;;;20.30;65.40;;;;;;481841;246;1222;-43
2021/07/15 06:30:59;;;;;;;;;;;20.30;65.40;;;;;;481724;246;1426;-43
2021/07/15 06:33:00;;;;;;;;;;;20.20;65.40;;;;;;481763;246;1265;-44
2021/07/15 06:35:02;;;;;;;;;;;20.20;65.50;;;;;;481781;246;2146;-43
2021/07/15 06:37:04;;;;;;;;;;;20.30;65.40;;;;;;481886;246;1353;-43
2021/07/15 06:39:04;;;;;;;;;;;20.30;65.30;;;;;;481878;246;1482;-43
2021/07/15 06:41:06;;;;;;;;;;;20.30;65.40;;;;;;481978;246;1203;-43
2021/07/15 06:43:07;;;;;;;;;;;20.30;65.40;;;;;;481871;246;1209;-43
2021/07/15 06:45:08;;;;;;;;;;;20.20;65.60;;;;;;481706;246;1241;-43
2021/07/15 06:47:10;;;;;;;;;;;20.20;65.40;;;;;;481748;246;1322;-43
2021/07/15 06:49:11;;;;;;;;;;;20.20;65.40;;;;;;481912;246;1144;-43
2021/07/15 06:51:12;;;;;;;;;;;20.20;65.40;;;;;;481872;246;1331;-44
2021/07/15 06:53:14;;;;;;;;;;;20.30;65.50;;;;;;481995;246;1077;-44
2021/07/15 06:55:15;;;;;;;;;;;20.20;65.50;;;;;;481428;246;2212;-44
2021/07/15 06:57:16;;;;;;;;;;;20.20;65.50;;;;;;482206;246;1231;-44
2021/07/15 06:59:18;;;;;;;;;;;20.30;65.40;;;;;;481884;246;1162;-44
2021/07/15 07:01:19;;;;;;;;;;;20.20;65.40;;;;;;481590;246;1336;-43
2021/07/15 07:03:20;;;;;;;;;;;20.30;65.50;;;;;;482035;246;1125;-43
2021/07/15 07:05:21;;;;;;;;;;;20.30;65.40;;;;;;481677;246;1093;-44
2021/07/15 07:07:23;;;;;;;;;;;20.30;65.40;;;;;;481636;246;1167;-44
2021/07/15 07:09:24;;;;;;;;;;;20.30;65.30;;;;;;481854;246;1126;-43
2021/07/15 07:11:25;;;;;;;;;;;20.30;65.30;;;;;;481559;246;1253;-43
2021/07/15 07:13:27;;;;;;;;;;;20.30;65.20;;;;;;481706;246;1181;-44
2021/07/15 07:15:28;;;;;;;;;;;20.30;65.40;;;;;;481710;246;2196;-44
2021/07/15 07:17:29;;;;;;;;;;;20.30;65.40;;;;;;481690;246;1260;-43
2021/07/15 07:19:31;;;;;;;;;;;20.30;65.40;;;;;;481813;246;1239;-44
2021/07/15 07:21:32;;;;;;;;;;;20.30;65.40;;;;;;481598;246;1303;-44
2021/07/15 07:23:33;;;;;;;;;;;20.30;65.40;;;;;;481561;246;1114;-44
2021/07/15 07:25:35;;;;;;;;;;;20.30;65.40;;;;;;481353;246;1180;-44
2021/07/15 07:27:36;;;;;;;;;;;20.20;65.40;;;;;;481524;246;1324;-44
2021/07/15 07:29:37;;;;;;;;;;;20.30;65.60;;;;;;481373;246;1187;-43
2021/07/15 07:31:39;;;;;;;;;;;20.20;65.50;;;;;;481324;246;1336;-44
2021/07/15 07:33:41;;;;;;;;;;;20.30;65.50;;;;;;482141;246;1142;-44
2021/07/15 07:35:42;;;;;;;;;;;20.30;65.40;;;;;;482245;246;2196;-44
2021/07/15 07:37:44;;;;;;;;;;;20.30;65.40;;;;;;482103;246;1113;-44
2021/07/15 07:39:45;;;;;;;;;;;20.30;65.30;;;;;;481721;246;914;-43
2021/07/15 07:41:46;;;;;;;;;;;20.30;65.40;;;;;;482021;246;1779;-44
2021/07/15 07:43:48;;;;;;;;;;;20.30;65.40;;;;;;481698;246;1111;-44
2021/07/15 07:45:49;;;;;;;;;;;20.30;65.40;;;;;;482187;246;1285;-43
2021/07/15 07:47:50;;;;;;;;;;;20.30;65.40;;;;;;478765;248;1114;-44
2021/07/15 07:49:51;;;;;;;;;;;20.30;65.40;;;;;;477578;249;901;-44
2021/07/15 07:51:53;;;;;;;;;;;20.30;65.50;;;;;;482186;247;1133;-44
2021/07/15 07:53:56;;;;;;;;;;;20.20;65.40;;;;;;482302;246;990;-44
2021/07/15 07:55:55;;;;;;;;;;;20.30;65.30;;;;;;482111;246;2208;-44
2021/07/15 07:57:57;;;;;;;;;;;20.30;65.30;;;;;;481835;246;1173;-44
2021/07/15 07:59:58;;;;;;;;;;;20.30;65.30;;;;;;481897;246;1155;-44
2021/07/15 08:01:59;;;;;;;;;;;20.30;65.30;;;;;;481871;246;1256;-44
2021/07/15 08:04:01;;;;;;;;;;;20.30;65.20;;;;;;482299;246;1054;-43
2021/07/15 08:06:02;;;;;;;;;;;20.40;65.10;;;;;;482277;246;2052;-43
2021/07/15 08:08:03;;;;;;;;;;;20.40;65.20;;;;;;482417;246;928;-43
2021/07/15 08:10:05;;;;;;;;;;;20.40;65.20;;;;;;481975;246;912;-43
2021/07/15 08:12:06;;;;;;;;;;;20.30;65.20;;;;;;482334;246;1105;-43
2021/07/15 08:14:07;;;;;;;;;;;20.30;65.10;;;;;;482285;243;1337;-44
2021/07/15 08:16:09;;;;;;;;;;;20.40;65.10;;;;;;482201;246;2193;-43
2021/07/15 08:18:10;;;;;;;;;;;20.40;65.10;;;;;;481518;246;1100;-44
2021/07/15 08:20:11;;;;;;;;;;;20.40;65.20;;;;;;481551;246;1165;-43
2021/07/15 08:22:13;;;;;;;;;;;20.40;65.20;;;;;;481692;246;1204;-43
2021/07/15 08:24:14;;;;;;;;;;;20.40;65.20;;;;;;481371;246;1183;-44
2021/07/15 08:26:15;;;;;;;;;;;20.40;65.10;;;;;;481167;246;1194;-44
2021/07/15 08:28:17;;;;;;;;;;;20.40;65.00;;;;;;481349;246;1248;-44
2021/07/15 08:30:18;;;;;;;;;;;20.50;64.90;;;;;;481221;246;1221;-43
2021/07/15 08:32:19;;;;;;;;;;;20.50;64.90;;;;;;481245;246;1107;-44
2021/07/15 08:34:21;;;;;;;;;;;20.40;64.90;;;;;;481293;246;1219;-43
2021/07/15 08:36:22;;;;;;;;;;;20.50;64.90;;;;;;481186;246;2188;-44
2021/07/15 08:38:23;;;;;;;;;;;20.40;64.90;;;;;;481384;246;1152;-44
2021/07/15 08:40:25;;;;;;;;;;;20.50;64.90;;;;;;481371;246;1059;-43
2021/07/15 08:42:26;;;;;;;;;;;20.50;64.80;;;;;;481391;246;1102;-44
2021/07/15 08:44:27;;;;;;;;;;;20.40;64.80;;;;;;481468;246;1322;-43
2021/07/15 08:46:29;;;;;;;;;;;20.50;65.00;;;;;;481556;246;1362;-43
2021/07/15 08:48:30;;;;;;;;;;;20.50;64.90;;;;;;481581;246;1161;-44
2021/07/15 08:50:31;;;;;;;;;;;20.50;64.80;;;;;;481494;246;1277;-44
2021/07/15 08:52:33;;;;;;;;;;;20.50;65.00;;;;;;481473;246;1299;-43
2021/07/15 08:54:47;;;;;;;;;;;20.50;64.90;;;;;;481424;246;2161;-43
2021/07/15 08:56:41;;;;;;;;;;;20.50;64.80;;;;;;480711;243;2197;-44
2021/07/15 08:58:40;;;;;;;;;;;20.50;64.80;;;;;;482189;246;2156;-43
2021/07/15 09:00:42;;;;;;;;;;;20.50;64.80;;;;;;481443;246;1191;-43
2021/07/15 09:02:43;;;;;;;;;;;20.50;64.90;;;;;;481911;246;1213;-43
2021/07/15 09:04:44;;;;;;;;;;;20.50;64.80;;;;;;482098;246;1101;-43
2021/07/15 09:06:46;;;;;;;;;;;20.50;64.90;;;;;;481214;246;1268;-43
2021/07/15 09:08:47;;;;;;;;;;;20.50;65.00;;;;;;481297;246;1165;-43
2021/07/15 09:10:48;;;;;;;;;;;20.50;64.90;;;;;;481114;246;1076;-44
2021/07/15 09:12:50;;;;;;;;;;;20.50;64.90;;;;;;481151;246;1239;-43
2021/07/15 09:14:51;;;;;;;;;;;20.50;65.00;;;;;;481243;246;2213;-43
2021/07/15 09:16:52;;;;;;;;;;;20.40;65.10;;;;;;481232;246;1084;-44
2021/07/15 09:18:54;;;;;;;;;;;20.40;65.20;;;;;;481327;246;1371;-43
2021/07/15 09:20:55;;;;;;;;;;;20.40;65.30;;;;;;481210;246;1162;-43
2021/07/15 09:22:59;;;;;;;;;;;20.40;65.20;;;;;;481292;246;1080;-43
2021/07/15 09:24:58;;;;;;;;;;;20.40;65.40;;;;;;481152;246;2119;-43
2021/07/15 09:27:00;;;;;;;;;;;20.40;65.30;;;;;;481221;246;1124;-43
2021/07/15 09:29:01;;;;;;;;;;;20.40;65.30;;;;;;481304;246;1073;-43
2021/07/15 09:31:02;;;;;;;;;;;20.40;65.20;;;;;;481183;246;1188;-44
2021/07/15 09:33:04;;;;;;;;;;;20.40;65.20;;;;;;481288;246;1151;-44
2021/07/15 09:35:05;;;;;;;;;;;20.40;65.30;;;;;;480888;246;2129;-44
2021/07/15 09:37:06;;;;;;;;;;;20.40;65.40;;;;;;480992;246;1291;-43
2021/07/15 09:39:08;;;;;;;;;;;20.30;65.40;;;;;;481100;246;1631;-44
2021/07/15 09:41:09;;;;;;;;;;;20.40;65.40;;;;;;481999;246;1153;-43
2021/07/15 09:43:10;;;;;;;;;;;20.40;65.30;;;;;;481597;246;1309;-43
2021/07/15 09:45:11;;;;;;;;;;;20.30;65.30;;;;;;482045;246;1161;-44
2021/07/15 09:47:13;;;;;;;;;;;20.40;65.40;;;;;;481927;246;1338;-43
2021/07/15 09:49:14;;;;;;;;;;;20.40;65.40;;;;;;482112;246;888;-44
2021/07/15 09:51:15;;;;;;;;;;;20.30;65.40;;;;;;482128;246;880;-43
2021/07/15 09:53:17;;;;;;;;;;;20.30;65.50;;;;;;482220;246;1065;-44
2021/07/15 09:55:19;;;;;;;;;;;20.30;65.60;;;;;;482117;246;2189;-44
2021/07/15 09:57:20;;;;;;;;;;;20.30;65.50;;;;;;482085;246;1106;-44
2021/07/15 09:59:21;;;;;;;;;;;20.30;65.50;;;;;;481791;246;900;-44
2021/07/15 10:01:24;;;;;;;;;;;20.30;65.50;;;;;;481732;246;1165;-44
2021/07/15 10:03:24;;;;;;;;;;;20.30;65.50;;;;;;482159;246;2145;-44
2021/07/15 10:05:25;;;;;;;;;;;20.30;65.50;;;;;;482195;246;862;-43
2021/07/15 10:07:27;;;;;;;;;;;20.30;65.40;;;;;;481594;246;1173;-43
2021/07/15 10:09:29;;;;;;;;;;;20.30;65.40;;;;;;481702;246;946;-43
2021/07/15 10:11:32;;;;;;;;;;;20.30;65.50;;;;;;481543;247;2098;-44
2021/07/15 10:13:31;;;;;;;;;;;20.30;65.50;;;;;;482173;246;1803;-43
2021/07/15 10:15:32;;;;;;;;;;;20.30;65.50;;;;;;482346;246;2644;-43
2021/07/15 10:17:34;;;;;;;;;;;20.30;65.50;;;;;;481764;246;1067;-43
2021/07/15 10:19:35;;;;;;;;;;;20.30;65.40;;;;;;481930;246;969;-44
2021/07/15 10:21:36;;;;;;;;;;;20.30;65.40;;;;;;482004;246;1260;-43
2021/07/15 10:23:38;;;;;;;;;;;20.30;65.40;;;;;;481857;246;1346;-44
2021/07/15 10:25:39;;;;;;;;;;;20.40;65.40;;;;;;482247;246;1189;-44
2021/07/15 10:27:40;;;;;;;;;;;20.30;65.40;;;;;;481990;246;1070;-43
2021/07/15 10:29:42;;;;;;;;;;;20.40;65.30;;;;;;482337;246;1328;-43
2021/07/15 10:31:43;;;;;;;;;;;20.40;65.30;;;;;;481558;246;1212;-44
2021/07/15 10:33:44;;;;;;;;;;;20.40;65.10;;;;;;482126;246;1338;-44
2021/07/15 10:35:46;;;;;;;;;;;20.50;65.00;;;;;;481653;246;2200;-44
2021/07/15 10:37:47;;;;;;;;;;;20.50;64.90;;;;;;482266;246;1112;-44
2021/07/15 10:39:49;;;;;;;;;;;20.50;64.90;;;;;;481929;246;1127;-43
2021/07/15 10:41:50;;;;;;;;;;;20.50;64.90;;;;;;481614;246;1340;-44
2021/07/15 10:43:53;;;;;;;;;;;20.40;65.00;;;;;;481697;246;1225;-44
2021/07/15 10:45:53;;;;;;;;;;;20.40;65.10;;;;;;481243;246;2261;-43
2021/07/15 10:47:56;;;;;;;;;;;20.40;65.10;;;;;;481302;246;1239;-43
2021/07/15 10:49:55;;;;;;;;;;;20.50;65.00;;;;;;481133;246;2213;-44
2021/07/15 10:51:58;;;;;;;;;;;20.40;65.00;;;;;;481260;246;1217;-43
2021/07/15 10:53:58;;;;;;;;;;;20.40;65.00;;;;;;481437;246;1875;-44
2021/07/15 10:55:59;;;;;;;;;;;20.50;65.00;;;;;;481686;246;2150;-44
2021/07/15 10:58:01;;;;;;;;;;;20.50;65.00;;;;;;481640;246;1107;-44
2021/07/15 11:00:02;;;;;;;;;;;20.50;65.00;;;;;;481393;246;1198;-44
2021/07/15 11:02:03;;;;;;;;;;;20.50;64.90;;;;;;481362;246;1413;-44
2021/07/15 11:04:05;;;;;;;;;;;20.50;65.00;;;;;;481363;246;1201;-43
2021/07/15 11:06:06;;;;;;;;;;;20.50;65.00;;;;;;481391;246;1113;-43
2021/07/15 11:08:08;;;;;;;;;;;20.50;65.00;;;;;;481302;246;1192;-43
2021/07/15 11:10:09;;;;;;;;;;;20.50;65.10;;;;;;481360;246;1150;-44
2021/07/15 11:12:10;;;;;;;;;;;20.50;65.00;;;;;;481165;246;1246;-44
2021/07/15 11:14:11;;;;;;;;;;;20.50;64.90;;;;;;481350;246;1130;-44
2021/07/15 11:16:13;;;;;;;;;;;20.50;64.80;;;;;;481233;246;2201;-43
2021/07/15 11:18:16;;;;;;;;;;;20.60;64.80;;;;;;481367;246;1180;-44
2021/07/15 11:20:15;;;;;;;;;;;20.60;64.80;;;;;;481232;246;2122;-43
2021/07/15 11:22:17;;;;;;;;;;;20.60;64.80;;;;;;482200;246;1603;-44
2021/07/15 11:24:18;;;;;;;;;;;20.60;64.80;;;;;;481831;246;1142;-44
2021/07/15 11:26:19;;;;;;;;;;;20.60;64.80;;;;;;481901;246;1103;-44
2021/07/15 11:28:21;;;;;;;;;;;20.50;64.80;;;;;;482193;246;924;-43
2021/07/15 11:30:22;;;;;;;;;;;20.50;64.90;;;;;;481828;246;2121;-43
2021/07/15 11:32:23;;;;;;;;;;;20.50;64.80;;;;;;481655;246;1176;-44
2021/07/15 11:34:24;;;;;;;;;;;20.50;64.80;;;;;;482254;246;940;-43
2021/07/15 11:36:27;;;;;;;;;;;20.60;64.80;;;;;;482104;246;2204;-43
2021/07/15 11:38:28;;;;;;;;;;;20.60;64.80;;;;;;481888;246;1276;-43
2021/07/15 11:40:29;;;;;;;;;;;20.50;64.70;;;;;;481946;246;1260;-44
2021/07/15 11:42:33;;;;;;;;;;;20.50;64.90;;;;;;482310;246;1321;-43
2021/07/15 11:44:32;;;;;;;;;;;20.60;64.90;;;;;;481740;247;1737;-43
2021/07/15 11:46:34;;;;;;;;;;;20.60;64.80;;;;;;482114;246;1344;-44
2021/07/15 11:48:35;;;;;;;;;;;20.60;64.80;;;;;;481860;246;1085;-43
2021/07/15 11:50:38;;;;;;;;;;;20.60;64.80;;;;;;482193;246;872;-44
2021/07/15 11:52:38;;;;;;;;;;;20.50;64.70;;;;;;481789;246;2196;-44
2021/07/15 11:54:45;;;;;;;;;;;20.50;64.90;;;;;;482253;246;846;-44
2021/07/15 11:56:46;;;;;;;;;;;20.50;64.90;;;;;;482140;246;2189;-44